sensor_id;sensor_type;location;lat;lon;timestamp;P1;durP1;ratioP1;P2;durP2;ratioP2
61903;SDS011;47857;52.270;6.804;2022-11-25T00:02:15;14.93;;;3.40;;
61903;SDS011;47857;52.270;6.804;2022-11-25T00:04:40;10.57;;;2.90;;
61903;SDS011;47857;52.270;6.804;2022-11-25T00:07:06;18.27;;;3.55;;
61903;SDS011;47857;52.270;6.804;2022-11-25T00:09:31;20.02;;;3.38;;
61903;SDS011;47857;52.270;6.804;2022-11-25T00:11:57;17.48;;;3.00;;
61903;SDS011;47857;52.270;6.804;2022-11-25T00:14:22;15.50;;;3.00;;
61903;SDS011;47857;52.270;6.804;2022-11-25T00:16:48;17.65;;;3.13;;
61903;SDS011;47857;52.270;6.804;2022-11-25T00:19:13;16.75;;;3.38;;
61903;SDS011;47857;52.270;6.804;2022-11-25T00:21:39;19.25;;;4.00;;
61903;SDS011;47857;52.270;6.804;2022-11-25T00:24:05;18.27;;;3.03;;
61903;SDS011;47857;52.270;6.804;2022-11-25T00:26:31;12.93;;;2.92;;
61903;SDS011;47857;52.270;6.804;2022-11-25T00:28:59;16.25;;;3.10;;
61903;SDS011;47857;52.270;6.804;2022-11-25T00:31:27;16.20;;;2.85;;
61903;SDS011;47857;52.270;6.804;2022-11-25T00:33:56;14.27;;;3.70;;
61903;SDS011;47857;52.270;6.804;2022-11-25T00:36:40;15.98;;;3.40;;
61903;SDS011;47857;52.270;6.804;2022-11-25T00:39:08;18.92;;;3.00;;
61903;SDS011;47857;52.270;6.804;2022-11-25T00:41:35;17.35;;;3.00;;
61903;SDS011;47857;52.270;6.804;2022-11-25T00:47:08;16.90;;;2.88;;
61903;SDS011;47857;52.270;6.804;2022-11-25T00:49:34;18.33;;;3.15;;
61903;SDS011;47857;52.270;6.804;2022-11-25T00:52:00;16.15;;;3.53;;
61903;SDS011;47857;52.270;6.804;2022-11-25T00:54:26;19.45;;;2.90;;
61903;SDS011;47857;52.270;6.804;2022-11-25T00:56:52;16.77;;;3.22;;
61903;SDS011;47857;52.270;6.804;2022-11-25T00:59:18;15.93;;;2.80;;
61903;SDS011;47857;52.270;6.804;2022-11-25T01:01:43;21.45;;;3.55;;
61903;SDS011;47857;52.270;6.804;2022-11-25T01:04:09;14.48;;;3.00;;
61903;SDS011;47857;52.270;6.804;2022-11-25T01:06:35;16.15;;;3.35;;
61903;SDS011;47857;52.270;6.804;2022-11-25T01:09:01;22.55;;;3.50;;
61903;SDS011;47857;52.270;6.804;2022-11-25T01:11:27;20.48;;;3.70;;
61903;SDS011;47857;52.270;6.804;2022-11-25T01:13:54;18.20;;;3.38;;
61903;SDS011;47857;52.270;6.804;2022-11-25T01:16:20;19.90;;;3.10;;
61903;SDS011;47857;52.270;6.804;2022-11-25T01:18:47;15.02;;;3.15;;
61903;SDS011;47857;52.270;6.804;2022-11-25T01:21:23;18.30;;;3.33;;
61903;SDS011;47857;52.270;6.804;2022-11-25T01:23:52;16.33;;;3.25;;
61903;SDS011;47857;52.270;6.804;2022-11-25T01:26:18;15.52;;;3.25;;
61903;SDS011;47857;52.270;6.804;2022-11-25T01:28:46;14.50;;;3.17;;
61903;SDS011;47857;52.270;6.804;2022-11-25T01:31:14;16.95;;;3.15;;
61903;SDS011;47857;52.270;6.804;2022-11-25T01:33:41;17.05;;;3.67;;
61903;SDS011;47857;52.270;6.804;2022-11-25T01:36:08;21.40;;;3.50;;
61903;SDS011;47857;52.270;6.804;2022-11-25T01:38:35;16.67;;;3.60;;
61903;SDS011;47857;52.270;6.804;2022-11-25T01:41:03;16.92;;;3.03;;
61903;SDS011;47857;52.270;6.804;2022-11-25T01:43:29;15.90;;;2.97;;
61903;SDS011;47857;52.270;6.804;2022-11-25T01:46:06;18.60;;;3.33;;
61903;SDS011;47857;52.270;6.804;2022-11-25T01:48:53;16.92;;;3.28;;
61903;SDS011;47857;52.270;6.804;2022-11-25T01:51:33;13.90;;;3.10;;
61903;SDS011;47857;52.270;6.804;2022-11-25T01:54:06;15.10;;;3.40;;
61903;SDS011;47857;52.270;6.804;2022-11-25T01:56:37;16.77;;;3.38;;
61903;SDS011;47857;52.270;6.804;2022-11-25T01:59:14;15.80;;;2.85;;
61903;SDS011;47857;52.270;6.804;2022-11-25T02:01:40;18.65;;;3.40;;
61903;SDS011;47857;52.270;6.804;2022-11-25T02:04:06;18.92;;;3.50;;
61903;SDS011;47857;52.270;6.804;2022-11-25T02:06:37;19.00;;;3.80;;
61903;SDS011;47857;52.270;6.804;2022-11-25T02:09:07;11.60;;;2.47;;
61903;SDS011;47857;52.270;6.804;2022-11-25T02:11:33;17.20;;;3.63;;
61903;SDS011;47857;52.270;6.804;2022-11-25T02:14:03;18.55;;;2.97;;
61903;SDS011;47857;52.270;6.804;2022-11-25T02:16:30;16.73;;;3.45;;
61903;SDS011;47857;52.270;6.804;2022-11-25T02:18:56;18.55;;;3.67;;
61903;SDS011;47857;52.270;6.804;2022-11-25T02:21:25;16.83;;;3.38;;
61903;SDS011;47857;52.270;6.804;2022-11-25T02:24:03;15.52;;;3.22;;
61903;SDS011;47857;52.270;6.804;2022-11-25T02:26:33;20.67;;;3.60;;
61903;SDS011;47857;52.270;6.804;2022-11-25T02:28:58;16.92;;;3.53;;
61903;SDS011;47857;52.270;6.804;2022-11-25T02:31:24;20.27;;;3.60;;
61903;SDS011;47857;52.270;6.804;2022-11-25T02:33:49;21.48;;;3.92;;
61903;SDS011;47857;52.270;6.804;2022-11-25T02:36:16;22.17;;;3.78;;
61903;SDS011;47857;52.270;6.804;2022-11-25T02:38:47;17.08;;;3.30;;
61903;SDS011;47857;52.270;6.804;2022-11-25T02:41:18;19.67;;;3.65;;
61903;SDS011;47857;52.270;6.804;2022-11-25T02:43:50;18.15;;;3.40;;
61903;SDS011;47857;52.270;6.804;2022-11-25T02:46:19;20.52;;;3.50;;
61903;SDS011;47857;52.270;6.804;2022-11-25T02:48:47;16.83;;;3.50;;
61903;SDS011;47857;52.270;6.804;2022-11-25T02:51:14;19.27;;;3.63;;
61903;SDS011;47857;52.270;6.804;2022-11-25T02:53:41;15.35;;;3.58;;
61903;SDS011;47857;52.270;6.804;2022-11-25T02:56:08;22.15;;;3.70;;
61903;SDS011;47857;52.270;6.804;2022-11-25T02:58:34;24.17;;;3.60;;
61903;SDS011;47857;52.270;6.804;2022-11-25T03:00:59;18.23;;;3.70;;
61903;SDS011;47857;52.270;6.804;2022-11-25T03:03:25;18.95;;;3.80;;
61903;SDS011;47857;52.270;6.804;2022-11-25T03:05:51;15.77;;;3.38;;
61903;SDS011;47857;52.270;6.804;2022-11-25T03:08:16;16.15;;;3.33;;
61903;SDS011;47857;52.270;6.804;2022-11-25T03:10:42;15.57;;;3.55;;
61903;SDS011;47857;52.270;6.804;2022-11-25T03:13:08;18.85;;;3.38;;
61903;SDS011;47857;52.270;6.804;2022-11-25T03:15:38;17.75;;;3.35;;
61903;SDS011;47857;52.270;6.804;2022-11-25T03:18:03;17.45;;;3.45;;
61903;SDS011;47857;52.270;6.804;2022-11-25T03:20:29;17.95;;;3.28;;
61903;SDS011;47857;52.270;6.804;2022-11-25T03:22:55;15.95;;;3.60;;
61903;SDS011;47857;52.270;6.804;2022-11-25T03:25:23;14.93;;;3.38;;
61903;SDS011;47857;52.270;6.804;2022-11-25T03:27:48;16.00;;;3.45;;
61903;SDS011;47857;52.270;6.804;2022-11-25T03:30:15;20.65;;;4.18;;
61903;SDS011;47857;52.270;6.804;2022-11-25T03:32:45;18.88;;;3.33;;
61903;SDS011;47857;52.270;6.804;2022-11-25T03:35:11;18.08;;;3.47;;
61903;SDS011;47857;52.270;6.804;2022-11-25T03:37:37;15.45;;;3.72;;
61903;SDS011;47857;52.270;6.804;2022-11-25T03:40:05;17.25;;;3.55;;
61903;SDS011;47857;52.270;6.804;2022-11-25T03:42:31;17.90;;;3.58;;
61903;SDS011;47857;52.270;6.804;2022-11-25T03:44:58;22.63;;;4.30;;
61903;SDS011;47857;52.270;6.804;2022-11-25T03:47:23;15.70;;;3.50;;
61903;SDS011;47857;52.270;6.804;2022-11-25T03:49:49;17.13;;;3.53;;
61903;SDS011;47857;52.270;6.804;2022-11-25T03:52:14;25.13;;;4.60;;
61903;SDS011;47857;52.270;6.804;2022-11-25T03:54:41;22.90;;;4.30;;
61903;SDS011;47857;52.270;6.804;2022-11-25T03:57:15;15.32;;;3.67;;
61903;SDS011;47857;52.270;6.804;2022-11-25T03:59:41;24.48;;;3.65;;
61903;SDS011;47857;52.270;6.804;2022-11-25T04:02:07;20.40;;;3.95;;
61903;SDS011;47857;52.270;6.804;2022-11-25T04:04:33;22.75;;;3.92;;
61903;SDS011;47857;52.270;6.804;2022-11-25T04:06:59;16.27;;;3.22;;
61903;SDS011;47857;52.270;6.804;2022-11-25T04:09:24;18.95;;;3.63;;
61903;SDS011;47857;52.270;6.804;2022-11-25T04:11:52;23.00;;;3.60;;
61903;SDS011;47857;52.270;6.804;2022-11-25T04:14:47;17.38;;;3.70;;
61903;SDS011;47857;52.270;6.804;2022-11-25T04:17:12;18.38;;;3.92;;
61903;SDS011;47857;52.270;6.804;2022-11-25T04:19:38;17.35;;;3.53;;
61903;SDS011;47857;52.270;6.804;2022-11-25T04:22:03;16.73;;;3.50;;
61903;SDS011;47857;52.270;6.804;2022-11-25T04:24:31;14.45;;;3.35;;
61903;SDS011;47857;52.270;6.804;2022-11-25T04:26:57;20.77;;;3.85;;
61903;SDS011;47857;52.270;6.804;2022-11-25T04:29:22;18.02;;;4.05;;
61903;SDS011;47857;52.270;6.804;2022-11-25T04:31:48;20.85;;;3.72;;
61903;SDS011;47857;52.270;6.804;2022-11-25T04:34:14;17.92;;;3.95;;
61903;SDS011;47857;52.270;6.804;2022-11-25T04:36:39;23.45;;;4.32;;
61903;SDS011;47857;52.270;6.804;2022-11-25T04:39:05;24.33;;;4.60;;
61903;SDS011;47857;52.270;6.804;2022-11-25T04:41:32;24.15;;;4.47;;
61903;SDS011;47857;52.270;6.804;2022-11-25T04:43:59;19.67;;;4.55;;
61903;SDS011;47857;52.270;6.804;2022-11-25T04:46:28;20.70;;;4.15;;
61903;SDS011;47857;52.270;6.804;2022-11-25T04:48:58;18.50;;;4.25;;
61903;SDS011;47857;52.270;6.804;2022-11-25T04:51:24;16.90;;;4.00;;
61903;SDS011;47857;52.270;6.804;2022-11-25T04:53:54;22.10;;;4.55;;
61903;SDS011;47857;52.270;6.804;2022-11-25T04:56:22;27.42;;;4.85;;
61903;SDS011;47857;52.270;6.804;2022-11-25T04:58:51;22.10;;;4.47;;
61903;SDS011;47857;52.270;6.804;2022-11-25T05:01:38;19.52;;;4.47;;
61903;SDS011;47857;52.270;6.804;2022-11-25T05:04:18;19.75;;;6.20;;
61903;SDS011;47857;52.270;6.804;2022-11-25T05:06:43;27.15;;;8.20;;
61903;SDS011;47857;52.270;6.804;2022-11-25T05:09:11;30.05;;;10.45;;
61903;SDS011;47857;52.270;6.804;2022-11-25T05:11:39;28.77;;;10.40;;
61903;SDS011;47857;52.270;6.804;2022-11-25T05:14:04;26.58;;;10.32;;
61903;SDS011;47857;52.270;6.804;2022-11-25T05:16:30;26.85;;;6.15;;
61903;SDS011;47857;52.270;6.804;2022-11-25T05:18:56;24.52;;;5.07;;
61903;SDS011;47857;52.270;6.804;2022-11-25T05:21:22;19.42;;;5.25;;
61903;SDS011;47857;52.270;6.804;2022-11-25T05:23:48;19.38;;;5.00;;
61903;SDS011;47857;52.270;6.804;2022-11-25T05:26:13;25.05;;;5.75;;
61903;SDS011;47857;52.270;6.804;2022-11-25T05:28:42;19.00;;;4.60;;
61903;SDS011;47857;52.270;6.804;2022-11-25T05:31:09;21.35;;;5.40;;
61903;SDS011;47857;52.270;6.804;2022-11-25T05:33:36;20.58;;;5.05;;
61903;SDS011;47857;52.270;6.804;2022-11-25T05:36:03;24.40;;;6.03;;
61903;SDS011;47857;52.270;6.804;2022-11-25T05:38:35;22.92;;;5.68;;
61903;SDS011;47857;52.270;6.804;2022-11-25T05:41:02;20.75;;;5.60;;
61903;SDS011;47857;52.270;6.804;2022-11-25T05:43:29;28.83;;;6.32;;
61903;SDS011;47857;52.270;6.804;2022-11-25T05:45:56;26.67;;;6.00;;
61903;SDS011;47857;52.270;6.804;2022-11-25T05:48:22;29.70;;;6.28;;
61903;SDS011;47857;52.270;6.804;2022-11-25T05:50:48;27.13;;;6.80;;
61903;SDS011;47857;52.270;6.804;2022-11-25T05:53:20;30.63;;;7.38;;
61903;SDS011;47857;52.270;6.804;2022-11-25T05:55:54;25.80;;;6.43;;
61903;SDS011;47857;52.270;6.804;2022-11-25T05:58:47;23.00;;;6.30;;
61903;SDS011;47857;52.270;6.804;2022-11-25T06:01:14;28.38;;;6.20;;
61903;SDS011;47857;52.270;6.804;2022-11-25T06:03:40;27.92;;;6.80;;
61903;SDS011;47857;52.270;6.804;2022-11-25T06:06:08;30.45;;;6.93;;
61903;SDS011;47857;52.270;6.804;2022-11-25T06:08:34;28.65;;;8.23;;
61903;SDS011;47857;52.270;6.804;2022-11-25T06:11:08;29.80;;;7.60;;
61903;SDS011;47857;52.270;6.804;2022-11-25T06:13:38;33.60;;;7.88;;
61903;SDS011;47857;52.270;6.804;2022-11-25T06:16:10;27.23;;;7.85;;
61903;SDS011;47857;52.270;6.804;2022-11-25T06:18:42;25.35;;;6.72;;
61903;SDS011;47857;52.270;6.804;2022-11-25T06:21:09;21.02;;;6.47;;
61903;SDS011;47857;52.270;6.804;2022-11-25T06:23:37;25.55;;;7.25;;
61903;SDS011;47857;52.270;6.804;2022-11-25T06:26:06;28.00;;;6.47;;
61903;SDS011;47857;52.270;6.804;2022-11-25T06:28:35;24.00;;;5.97;;
61903;SDS011;47857;52.270;6.804;2022-11-25T06:31:19;23.27;;;6.18;;
61903;SDS011;47857;52.270;6.804;2022-11-25T06:33:54;21.75;;;5.53;;
61903;SDS011;47857;52.270;6.804;2022-11-25T06:36:19;24.42;;;5.25;;
61903;SDS011;47857;52.270;6.804;2022-11-25T06:38:49;16.20;;;4.88;;
61903;SDS011;47857;52.270;6.804;2022-11-25T06:41:16;20.42;;;5.15;;
61903;SDS011;47857;52.270;6.804;2022-11-25T06:43:42;18.50;;;5.47;;
61903;SDS011;47857;52.270;6.804;2022-11-25T06:46:12;21.17;;;5.80;;
61903;SDS011;47857;52.270;6.804;2022-11-25T06:48:38;22.05;;;5.75;;
61903;SDS011;47857;52.270;6.804;2022-11-25T06:51:05;23.90;;;5.55;;
61903;SDS011;47857;52.270;6.804;2022-11-25T06:53:33;18.55;;;5.72;;
61903;SDS011;47857;52.270;6.804;2022-11-25T06:56:06;21.92;;;5.55;;
61903;SDS011;47857;52.270;6.804;2022-11-25T06:58:34;23.50;;;6.28;;
61903;SDS011;47857;52.270;6.804;2022-11-25T07:01:03;16.05;;;5.20;;
61903;SDS011;47857;52.270;6.804;2022-11-25T07:03:34;21.13;;;5.65;;
61903;SDS011;47857;52.270;6.804;2022-11-25T07:06:00;14.77;;;4.25;;
61903;SDS011;47857;52.270;6.804;2022-11-25T07:08:28;14.82;;;4.32;;
61903;SDS011;47857;52.270;6.804;2022-11-25T07:10:54;22.23;;;4.85;;
61903;SDS011;47857;52.270;6.804;2022-11-25T07:13:20;20.48;;;4.80;;
61903;SDS011;47857;52.270;6.804;2022-11-25T07:15:46;17.42;;;4.75;;
61903;SDS011;47857;52.270;6.804;2022-11-25T07:18:12;19.58;;;5.13;;
61903;SDS011;47857;52.270;6.804;2022-11-25T07:20:38;17.40;;;5.50;;
61903;SDS011;47857;52.270;6.804;2022-11-25T07:23:03;18.42;;;5.43;;
61903;SDS011;47857;52.270;6.804;2022-11-25T07:25:29;16.70;;;5.15;;
61903;SDS011;47857;52.270;6.804;2022-11-25T07:27:54;17.10;;;5.10;;
61903;SDS011;47857;52.270;6.804;2022-11-25T07:30:20;15.35;;;4.70;;
61903;SDS011;47857;52.270;6.804;2022-11-25T07:32:46;19.02;;;4.53;;
61903;SDS011;47857;52.270;6.804;2022-11-25T07:35:11;21.08;;;4.82;;
61903;SDS011;47857;52.270;6.804;2022-11-25T07:37:37;22.77;;;5.53;;
61903;SDS011;47857;52.270;6.804;2022-11-25T07:40:02;20.60;;;5.20;;
61903;SDS011;47857;52.270;6.804;2022-11-25T07:42:28;21.20;;;5.57;;
61903;SDS011;47857;52.270;6.804;2022-11-25T07:44:54;14.07;;;4.43;;
61903;SDS011;47857;52.270;6.804;2022-11-25T07:50:03;17.00;;;4.70;;
61903;SDS011;47857;52.270;6.804;2022-11-25T07:52:30;20.38;;;4.47;;
61903;SDS011;47857;52.270;6.804;2022-11-25T07:54:55;17.85;;;4.97;;
61903;SDS011;47857;52.270;6.804;2022-11-25T07:57:21;24.05;;;5.13;;
61903;SDS011;47857;52.270;6.804;2022-11-25T07:59:46;15.18;;;4.95;;
61903;SDS011;47857;52.270;6.804;2022-11-25T08:02:12;16.30;;;5.13;;
61903;SDS011;47857;52.270;6.804;2022-11-25T08:04:37;16.80;;;4.95;;
61903;SDS011;47857;52.270;6.804;2022-11-25T08:07:03;18.38;;;4.97;;
61903;SDS011;47857;52.270;6.804;2022-11-25T08:09:28;14.10;;;4.68;;
61903;SDS011;47857;52.270;6.804;2022-11-25T08:11:54;17.50;;;4.53;;
61903;SDS011;47857;52.270;6.804;2022-11-25T08:14:19;14.45;;;4.10;;
61903;SDS011;47857;52.270;6.804;2022-11-25T08:16:45;17.27;;;4.47;;
61903;SDS011;47857;52.270;6.804;2022-11-25T08:19:12;17.80;;;4.70;;
61903;SDS011;47857;52.270;6.804;2022-11-25T08:21:39;15.85;;;3.58;;
61903;SDS011;47857;52.270;6.804;2022-11-25T08:24:05;18.02;;;4.53;;
61903;SDS011;47857;52.270;6.804;2022-11-25T08:26:31;17.83;;;4.50;;
61903;SDS011;47857;52.270;6.804;2022-11-25T08:29:00;19.88;;;5.20;;
61903;SDS011;47857;52.270;6.804;2022-11-25T08:31:28;16.95;;;4.55;;
61903;SDS011;47857;52.270;6.804;2022-11-25T08:33:55;14.63;;;5.20;;
61903;SDS011;47857;52.270;6.804;2022-11-25T08:36:21;19.88;;;5.40;;
61903;SDS011;47857;52.270;6.804;2022-11-25T08:38:49;15.48;;;5.28;;
61903;SDS011;47857;52.270;6.804;2022-11-25T08:41:18;15.75;;;4.40;;
61903;SDS011;47857;52.270;6.804;2022-11-25T08:43:49;20.42;;;4.35;;
61903;SDS011;47857;52.270;6.804;2022-11-25T08:46:16;14.38;;;4.00;;
61903;SDS011;47857;52.270;6.804;2022-11-25T08:48:43;17.08;;;4.30;;
61903;SDS011;47857;52.270;6.804;2022-11-25T08:51:10;16.42;;;4.22;;
61903;SDS011;47857;52.270;6.804;2022-11-25T08:53:38;16.45;;;4.55;;
61903;SDS011;47857;52.270;6.804;2022-11-25T08:56:04;14.60;;;4.15;;
61903;SDS011;47857;52.270;6.804;2022-11-25T08:58:30;14.75;;;4.43;;
61903;SDS011;47857;52.270;6.804;2022-11-25T09:00:56;19.20;;;5.00;;
61903;SDS011;47857;52.270;6.804;2022-11-25T09:03:22;11.95;;;3.83;;
61903;SDS011;47857;52.270;6.804;2022-11-25T09:05:47;13.82;;;4.45;;
61903;SDS011;47857;52.270;6.804;2022-11-25T09:08:13;12.07;;;4.63;;
61903;SDS011;47857;52.270;6.804;2022-11-25T09:10:39;15.40;;;4.40;;
61903;SDS011;47857;52.270;6.804;2022-11-25T09:13:05;16.27;;;4.22;;
61903;SDS011;47857;52.270;6.804;2022-11-25T09:15:30;12.85;;;4.53;;
61903;SDS011;47857;52.270;6.804;2022-11-25T09:17:57;12.45;;;3.70;;
61903;SDS011;47857;52.270;6.804;2022-11-25T09:20:26;14.70;;;5.28;;
61903;SDS011;47857;52.270;6.804;2022-11-25T09:22:52;24.92;;;10.38;;
61903;SDS011;47857;52.270;6.804;2022-11-25T09:25:18;13.90;;;5.80;;
61903;SDS011;47857;52.270;6.804;2022-11-25T09:27:44;21.80;;;7.78;;
61903;SDS011;47857;52.270;6.804;2022-11-25T09:30:10;12.52;;;5.30;;
61903;SDS011;47857;52.270;6.804;2022-11-25T09:32:36;14.05;;;4.75;;
61903;SDS011;47857;52.270;6.804;2022-11-25T09:35:01;12.93;;;3.80;;
61903;SDS011;47857;52.270;6.804;2022-11-25T09:37:27;12.15;;;3.45;;
61903;SDS011;47857;52.270;6.804;2022-11-25T09:39:52;12.02;;;3.53;;
61903;SDS011;47857;52.270;6.804;2022-11-25T09:45:16;9.02;;;2.97;;
61903;SDS011;47857;52.270;6.804;2022-11-25T09:51:11;14.23;;;3.38;;
61903;SDS011;47857;52.270;6.804;2022-11-25T09:53:45;11.98;;;3.10;;
61903;SDS011;47857;52.270;6.804;2022-11-25T09:56:30;8.18;;;2.92;;
61903;SDS011;47857;52.270;6.804;2022-11-25T09:59:12;11.82;;;4.43;;
61903;SDS011;47857;52.270;6.804;2022-11-25T10:01:48;9.27;;;2.83;;
61903;SDS011;47857;52.270;6.804;2022-11-25T10:04:52;11.32;;;3.13;;
61903;SDS011;47857;52.270;6.804;2022-11-25T10:07:17;10.00;;;3.17;;
61903;SDS011;47857;52.270;6.804;2022-11-25T10:09:47;14.07;;;3.28;;
61903;SDS011;47857;52.270;6.804;2022-11-25T10:12:27;8.35;;;2.70;;
61903;SDS011;47857;52.270;6.804;2022-11-25T10:15:02;11.60;;;2.90;;
61903;SDS011;47857;52.270;6.804;2022-11-25T10:17:37;12.80;;;4.18;;
61903;SDS011;47857;52.270;6.804;2022-11-25T10:20:11;15.38;;;4.20;;
61903;SDS011;47857;52.270;6.804;2022-11-25T10:22:46;10.40;;;3.03;;
61903;SDS011;47857;52.270;6.804;2022-11-25T10:25:18;10.65;;;3.78;;
61903;SDS011;47857;52.270;6.804;2022-11-25T10:27:51;9.90;;;2.38;;
61903;SDS011;47857;52.270;6.804;2022-11-25T10:30:24;9.68;;;2.95;;
61903;SDS011;47857;52.270;6.804;2022-11-25T10:35:27;11.68;;;3.60;;
61903;SDS011;47857;52.270;6.804;2022-11-25T10:37:56;9.85;;;3.78;;
61903;SDS011;47857;52.270;6.804;2022-11-25T10:40:24;13.25;;;3.40;;
61903;SDS011;47857;52.270;6.804;2022-11-25T10:42:49;11.30;;;3.22;;
61903;SDS011;47857;52.270;6.804;2022-11-25T10:45:15;12.68;;;3.40;;
61903;SDS011;47857;52.270;6.804;2022-11-25T10:50:16;16.45;;;4.63;;
61903;SDS011;47857;52.270;6.804;2022-11-25T10:52:56;8.95;;;3.30;;
61903;SDS011;47857;52.270;6.804;2022-11-25T10:55:25;12.88;;;3.13;;
61903;SDS011;47857;52.270;6.804;2022-11-25T10:57:53;10.80;;;2.72;;
61903;SDS011;47857;52.270;6.804;2022-11-25T11:00:30;9.18;;;3.42;;
61903;SDS011;47857;52.270;6.804;2022-11-25T11:02:57;14.52;;;3.95;;
61903;SDS011;47857;52.270;6.804;2022-11-25T11:05:29;9.57;;;3.45;;
61903;SDS011;47857;52.270;6.804;2022-11-25T11:10:45;10.98;;;3.15;;
61903;SDS011;47857;52.270;6.804;2022-11-25T11:13:24;10.95;;;3.20;;
61903;SDS011;47857;52.270;6.804;2022-11-25T11:15:52;11.90;;;3.22;;
61903;SDS011;47857;52.270;6.804;2022-11-25T11:23:18;11.80;;;3.15;;
61903;SDS011;47857;52.270;6.804;2022-11-25T11:33:35;14.95;;;3.10;;
61903;SDS011;47857;52.270;6.804;2022-11-25T11:36:11;9.47;;;2.77;;
61903;SDS011;47857;52.270;6.804;2022-11-25T11:47:05;11.38;;;3.17;;
61903;SDS011;47857;52.270;6.804;2022-11-25T11:49:46;12.93;;;3.80;;
61903;SDS011;47857;52.270;6.804;2022-11-25T11:58:19;13.63;;;3.60;;
61903;SDS011;47857;52.270;6.804;2022-11-25T12:03:58;15.45;;;3.88;;
61903;SDS011;47857;52.270;6.804;2022-11-25T12:06:27;18.08;;;4.13;;
61903;SDS011;47857;52.270;6.804;2022-11-25T12:08:55;17.40;;;4.53;;
61903;SDS011;47857;52.270;6.804;2022-11-25T12:11:36;13.48;;;3.65;;
61903;SDS011;47857;52.270;6.804;2022-11-25T12:16:36;18.00;;;3.90;;
61903;SDS011;47857;52.270;6.804;2022-11-25T12:27:36;13.85;;;3.72;;
61903;SDS011;47857;52.270;6.804;2022-11-25T12:30:10;12.25;;;4.10;;
61903;SDS011;47857;52.270;6.804;2022-11-25T12:41:15;11.48;;;3.78;;
61903;SDS011;47857;52.270;6.804;2022-11-25T12:43:49;19.38;;;4.68;;
61903;SDS011;47857;52.270;6.804;2022-11-25T12:49:27;18.35;;;4.70;;
61903;SDS011;47857;52.270;6.804;2022-11-25T13:16:45;14.65;;;4.03;;
61903;SDS011;47857;52.270;6.804;2022-11-25T13:19:16;12.65;;;3.47;;
61903;SDS011;47857;52.270;6.804;2022-11-25T13:24:29;14.63;;;3.90;;
61903;SDS011;47857;52.270;6.804;2022-11-25T13:26:58;19.33;;;3.70;;
61903;SDS011;47857;52.270;6.804;2022-11-25T13:31:54;14.05;;;3.75;;
61903;SDS011;47857;52.270;6.804;2022-11-25T13:34:34;14.65;;;3.80;;
61903;SDS011;47857;52.270;6.804;2022-11-25T13:37:01;13.50;;;3.75;;
61903;SDS011;47857;52.270;6.804;2022-11-25T13:39:28;16.55;;;3.95;;
61903;SDS011;47857;52.270;6.804;2022-11-25T13:44:51;15.73;;;3.60;;
61903;SDS011;47857;52.270;6.804;2022-11-25T13:50:04;13.77;;;3.83;;
61903;SDS011;47857;52.270;6.804;2022-11-25T13:53:37;13.13;;;4.00;;
61903;SDS011;47857;52.270;6.804;2022-11-25T13:55:47;15.07;;;4.55;;
61903;SDS011;47857;52.270;6.804;2022-11-25T13:58:20;17.27;;;4.88;;
61903;SDS011;47857;52.270;6.804;2022-11-25T14:00:49;16.55;;;4.35;;
61903;SDS011;47857;52.270;6.804;2022-11-25T14:08:45;24.08;;;5.03;;
61903;SDS011;47857;52.270;6.804;2022-11-25T14:17:57;15.25;;;3.95;;
61903;SDS011;47857;52.270;6.804;2022-11-25T14:25:28;18.92;;;4.15;;
61903;SDS011;47857;52.270;6.804;2022-11-25T14:28:14;18.90;;;3.97;;
61903;SDS011;47857;52.270;6.804;2022-11-25T14:30:48;18.95;;;4.50;;
61903;SDS011;47857;52.270;6.804;2022-11-25T14:33:16;16.23;;;4.00;;
61903;SDS011;47857;52.270;6.804;2022-11-25T14:35:48;13.32;;;3.42;;
61903;SDS011;47857;52.270;6.804;2022-11-25T14:38:19;15.05;;;3.85;;
61903;SDS011;47857;52.270;6.804;2022-11-25T14:40:56;16.25;;;4.13;;
61903;SDS011;47857;52.270;6.804;2022-11-25T14:43:24;15.07;;;3.58;;
61903;SDS011;47857;52.270;6.804;2022-11-25T14:46:11;14.27;;;3.70;;
61903;SDS011;47857;52.270;6.804;2022-11-25T14:48:41;14.90;;;4.07;;
61903;SDS011;47857;52.270;6.804;2022-11-25T14:51:09;21.15;;;4.60;;
61903;SDS011;47857;52.270;6.804;2022-11-25T14:53:40;18.40;;;5.28;;
61903;SDS011;47857;52.270;6.804;2022-11-25T14:56:07;21.13;;;4.93;;
61903;SDS011;47857;52.270;6.804;2022-11-25T14:58:32;25.30;;;5.75;;
61903;SDS011;47857;52.270;6.804;2022-11-25T15:00:59;22.67;;;5.22;;
61903;SDS011;47857;52.270;6.804;2022-11-25T15:03:27;21.27;;;4.90;;
61903;SDS011;47857;52.270;6.804;2022-11-25T15:05:59;18.20;;;4.38;;
61903;SDS011;47857;52.270;6.804;2022-11-25T15:08:25;15.05;;;4.15;;
61903;SDS011;47857;52.270;6.804;2022-11-25T15:10:55;19.17;;;5.40;;
61903;SDS011;47857;52.270;6.804;2022-11-25T15:13:28;23.60;;;5.57;;
61903;SDS011;47857;52.270;6.804;2022-11-25T15:15:55;19.40;;;4.90;;
61903;SDS011;47857;52.270;6.804;2022-11-25T15:18:24;24.08;;;5.95;;
61903;SDS011;47857;52.270;6.804;2022-11-25T15:20:55;24.75;;;6.40;;
61903;SDS011;47857;52.270;6.804;2022-11-25T15:23:27;22.92;;;5.95;;
61903;SDS011;47857;52.270;6.804;2022-11-25T15:25:56;17.33;;;5.00;;
61903;SDS011;47857;52.270;6.804;2022-11-25T15:28:22;17.58;;;4.38;;
61903;SDS011;47857;52.270;6.804;2022-11-25T15:30:54;16.27;;;4.90;;
61903;SDS011;47857;52.270;6.804;2022-11-25T15:33:22;20.50;;;5.53;;
61903;SDS011;47857;52.270;6.804;2022-11-25T15:35:48;24.42;;;7.00;;
61903;SDS011;47857;52.270;6.804;2022-11-25T15:39:01;26.27;;;6.93;;
61903;SDS011;47857;52.270;6.804;2022-11-25T15:41:05;19.35;;;5.43;;
61903;SDS011;47857;52.270;6.804;2022-11-25T15:43:43;22.30;;;5.45;;
61903;SDS011;47857;52.270;6.804;2022-11-25T15:46:11;19.17;;;5.35;;
61903;SDS011;47857;52.270;6.804;2022-11-25T15:48:37;19.75;;;5.28;;
61903;SDS011;47857;52.270;6.804;2022-11-25T15:51:05;20.88;;;5.45;;
61903;SDS011;47857;52.270;6.804;2022-11-25T15:53:59;24.65;;;5.47;;
61903;SDS011;47857;52.270;6.804;2022-11-25T15:56:27;27.35;;;6.90;;
61903;SDS011;47857;52.270;6.804;2022-11-25T15:58:53;30.48;;;7.57;;
61903;SDS011;47857;52.270;6.804;2022-11-25T16:01:22;20.05;;;6.47;;
61903;SDS011;47857;52.270;6.804;2022-11-25T16:03:49;24.30;;;6.00;;
61903;SDS011;47857;52.270;6.804;2022-11-25T16:06:25;21.40;;;5.20;;
61903;SDS011;47857;52.270;6.804;2022-11-25T16:09:01;18.05;;;5.55;;
61903;SDS011;47857;52.270;6.804;2022-11-25T16:11:28;24.08;;;5.97;;
61903;SDS011;47857;52.270;6.804;2022-11-25T16:16:41;16.27;;;5.78;;
61903;SDS011;47857;52.270;6.804;2022-11-25T16:26:35;17.30;;;5.38;;
61903;SDS011;47857;52.270;6.804;2022-11-25T16:32:14;33.13;;;11.75;;
61903;SDS011;47857;52.270;6.804;2022-11-25T16:34:41;30.23;;;10.75;;
61903;SDS011;47857;52.270;6.804;2022-11-25T16:37:07;19.90;;;7.72;;
61903;SDS011;47857;52.270;6.804;2022-11-25T16:39:33;48.92;;;19.60;;
61903;SDS011;47857;52.270;6.804;2022-11-25T16:41:59;27.80;;;9.73;;
61903;SDS011;47857;52.270;6.804;2022-11-25T16:44:29;43.33;;;16.80;;
61903;SDS011;47857;52.270;6.804;2022-11-25T16:46:56;32.75;;;13.00;;
61903;SDS011;47857;52.270;6.804;2022-11-25T16:49:21;28.08;;;8.15;;
61903;SDS011;47857;52.270;6.804;2022-11-25T16:51:47;18.67;;;5.85;;
61903;SDS011;47857;52.270;6.804;2022-11-25T16:54:17;22.08;;;5.78;;
61903;SDS011;47857;52.270;6.804;2022-11-25T16:56:43;16.90;;;5.20;;
61903;SDS011;47857;52.270;6.804;2022-11-25T16:59:17;29.70;;;6.30;;
61903;SDS011;47857;52.270;6.804;2022-11-25T17:04:13;21.27;;;5.93;;
61903;SDS011;47857;52.270;6.804;2022-11-25T17:06:42;25.92;;;5.97;;
61903;SDS011;47857;52.270;6.804;2022-11-25T17:09:09;17.88;;;6.03;;